sensor_id;sensor_type;location;lat;lon;timestamp;P1;durP1;ratioP1;P2;durP2;ratioP2
4365;SDS011;2196;47.422;9.656;2022-11-02T00:00:24;11.27;;;7.90;;
4365;SDS011;2196;47.422;9.656;2022-11-02T00:02:51;10.13;;;7.97;;
4365;SDS011;2196;47.422;9.656;2022-11-02T00:05:18;11.90;;;8.37;;
4365;SDS011;2196;47.422;9.656;2022-11-02T00:07:50;13.23;;;8.17;;
4365;SDS011;2196;47.422;9.656;2022-11-02T00:10:18;12.03;;;8.60;;
4365;SDS011;2196;47.422;9.656;2022-11-02T00:12:46;7.80;;;7.00;;
4365;SDS011;2196;47.422;9.656;2022-11-02T00:15:14;12.27;;;8.20;;
4365;SDS011;2196;47.422;9.656;2022-11-02T00:17:41;11.93;;;8.23;;
4365;SDS011;2196;47.422;9.656;2022-11-02T00:20:12;9.03;;;7.60;;
4365;SDS011;2196;47.422;9.656;2022-11-02T00:22:41;7.90;;;7.17;;
4365;SDS011;2196;47.422;9.656;2022-11-02T00:25:11;11.00;;;7.10;;
4365;SDS011;2196;47.422;9.656;2022-11-02T00:27:40;12.50;;;9.13;;
4365;SDS011;2196;47.422;9.656;2022-11-02T00:30:08;12.00;;;7.30;;
4365;SDS011;2196;47.422;9.656;2022-11-02T00:32:36;9.33;;;8.13;;
4365;SDS011;2196;47.422;9.656;2022-11-02T00:35:03;13.33;;;8.40;;
4365;SDS011;2196;47.422;9.656;2022-11-02T00:37:31;12.27;;;8.10;;
4365;SDS011;2196;47.422;9.656;2022-11-02T00:39:58;11.23;;;7.70;;
4365;SDS011;2196;47.422;9.656;2022-11-02T00:42:27;9.93;;;8.13;;
4365;SDS011;2196;47.422;9.656;2022-11-02T00:44:54;9.63;;;7.53;;
4365;SDS011;2196;47.422;9.656;2022-11-02T00:47:21;11.93;;;8.53;;
4365;SDS011;2196;47.422;9.656;2022-11-02T00:49:48;10.87;;;8.03;;
4365;SDS011;2196;47.422;9.656;2022-11-02T00:52:15;12.60;;;7.80;;
4365;SDS011;2196;47.422;9.656;2022-11-02T00:54:42;15.77;;;8.40;;
4365;SDS011;2196;47.422;9.656;2022-11-02T00:57:10;9.50;;;8.37;;
4365;SDS011;2196;47.422;9.656;2022-11-02T00:59:38;12.40;;;8.23;;
4365;SDS011;2196;47.422;9.656;2022-11-02T01:02:05;8.37;;;7.13;;
4365;SDS011;2196;47.422;9.656;2022-11-02T01:04:32;11.27;;;9.63;;
4365;SDS011;2196;47.422;9.656;2022-11-02T01:07:00;11.27;;;9.00;;
4365;SDS011;2196;47.422;9.656;2022-11-02T01:09:27;14.67;;;11.17;;
4365;SDS011;2196;47.422;9.656;2022-11-02T01:11:55;11.60;;;9.30;;
4365;SDS011;2196;47.422;9.656;2022-11-02T01:14:22;10.10;;;9.20;;
4365;SDS011;2196;47.422;9.656;2022-11-02T01:16:50;12.20;;;9.63;;
4365;SDS011;2196;47.422;9.656;2022-11-02T01:19:18;10.63;;;9.17;;
4365;SDS011;2196;47.422;9.656;2022-11-02T01:21:45;11.97;;;9.73;;
4365;SDS011;2196;47.422;9.656;2022-11-02T01:24:12;15.53;;;9.70;;
4365;SDS011;2196;47.422;9.656;2022-11-02T01:26:39;11.13;;;9.07;;
4365;SDS011;2196;47.422;9.656;2022-11-02T01:29:07;10.73;;;8.30;;
4365;SDS011;2196;47.422;9.656;2022-11-02T01:31:34;12.10;;;7.03;;
4365;SDS011;2196;47.422;9.656;2022-11-02T01:34:02;10.27;;;8.50;;
4365;SDS011;2196;47.422;9.656;2022-11-02T01:36:29;14.13;;;8.30;;
4365;SDS011;2196;47.422;9.656;2022-11-02T01:38:56;10.87;;;8.07;;
4365;SDS011;2196;47.422;9.656;2022-11-02T01:44:25;11.93;;;8.50;;
4365;SDS011;2196;47.422;9.656;2022-11-02T01:46:54;11.27;;;9.07;;
4365;SDS011;2196;47.422;9.656;2022-11-02T01:49:27;12.40;;;9.23;;
4365;SDS011;2196;47.422;9.656;2022-11-02T01:51:59;12.83;;;9.40;;
4365;SDS011;2196;47.422;9.656;2022-11-02T01:54:31;13.33;;;8.00;;
4365;SDS011;2196;47.422;9.656;2022-11-02T01:57:02;13.50;;;9.10;;
4365;SDS011;2196;47.422;9.656;2022-11-02T01:59:32;11.57;;;9.60;;
4365;SDS011;2196;47.422;9.656;2022-11-02T02:02:03;12.37;;;8.60;;
4365;SDS011;2196;47.422;9.656;2022-11-02T02:04:34;10.87;;;8.33;;
4365;SDS011;2196;47.422;9.656;2022-11-02T02:07:02;10.23;;;8.70;;
4365;SDS011;2196;47.422;9.656;2022-11-02T02:09:30;17.37;;;9.43;;
4365;SDS011;2196;47.422;9.656;2022-11-02T02:11:58;11.40;;;8.03;;
4365;SDS011;2196;47.422;9.656;2022-11-02T02:14:25;9.97;;;7.77;;
4365;SDS011;2196;47.422;9.656;2022-11-02T02:16:56;11.87;;;9.00;;
4365;SDS011;2196;47.422;9.656;2022-11-02T02:19:35;14.07;;;9.13;;
4365;SDS011;2196;47.422;9.656;2022-11-02T02:22:20;12.97;;;8.73;;
4365;SDS011;2196;47.422;9.656;2022-11-02T02:25:05;8.20;;;7.40;;
4365;SDS011;2196;47.422;9.656;2022-11-02T02:27:53;9.93;;;8.57;;
4365;SDS011;2196;47.422;9.656;2022-11-02T02:30:28;11.67;;;8.83;;
4365;SDS011;2196;47.422;9.656;2022-11-02T02:33:03;15.87;;;9.20;;
4365;SDS011;2196;47.422;9.656;2022-11-02T02:35:36;10.83;;;8.87;;
4365;SDS011;2196;47.422;9.656;2022-11-02T02:38:09;12.77;;;8.97;;
4365;SDS011;2196;47.422;9.656;2022-11-02T02:40:42;11.10;;;8.97;;
4365;SDS011;2196;47.422;9.656;2022-11-02T02:43:17;12.97;;;8.10;;
4365;SDS011;2196;47.422;9.656;2022-11-02T02:45:49;10.60;;;9.10;;
4365;SDS011;2196;47.422;9.656;2022-11-02T02:48:19;9.47;;;8.50;;
4365;SDS011;2196;47.422;9.656;2022-11-02T02:50:49;20.50;;;9.73;;
4365;SDS011;2196;47.422;9.656;2022-11-02T02:53:19;15.13;;;9.57;;
4365;SDS011;2196;47.422;9.656;2022-11-02T02:55:49;13.73;;;9.70;;
4365;SDS011;2196;47.422;9.656;2022-11-02T02:58:19;13.23;;;9.80;;
4365;SDS011;2196;47.422;9.656;2022-11-02T03:00:49;12.20;;;9.13;;
4365;SDS011;2196;47.422;9.656;2022-11-02T03:03:19;10.87;;;8.73;;
4365;SDS011;2196;47.422;9.656;2022-11-02T03:05:58;10.83;;;9.07;;
4365;SDS011;2196;47.422;9.656;2022-11-02T03:08:30;13.43;;;8.67;;
4365;SDS011;2196;47.422;9.656;2022-11-02T03:11:00;10.53;;;7.77;;
4365;SDS011;2196;47.422;9.656;2022-11-02T03:13:37;10.33;;;7.90;;
4365;SDS011;2196;47.422;9.656;2022-11-02T03:16:10;8.53;;;7.40;;
4365;SDS011;2196;47.422;9.656;2022-11-02T03:18:48;10.17;;;8.53;;
4365;SDS011;2196;47.422;9.656;2022-11-02T03:21:24;11.93;;;8.43;;
4365;SDS011;2196;47.422;9.656;2022-11-02T03:23:57;10.70;;;7.63;;
4365;SDS011;2196;47.422;9.656;2022-11-02T03:26:28;9.80;;;8.00;;
4365;SDS011;2196;47.422;9.656;2022-11-02T03:29:01;9.40;;;7.90;;
4365;SDS011;2196;47.422;9.656;2022-11-02T03:31:35;15.10;;;8.40;;
4365;SDS011;2196;47.422;9.656;2022-11-02T03:34:12;12.60;;;8.50;;
4365;SDS011;2196;47.422;9.656;2022-11-02T03:36:46;8.40;;;7.50;;
4365;SDS011;2196;47.422;9.656;2022-11-02T03:39:17;8.43;;;7.60;;
4365;SDS011;2196;47.422;9.656;2022-11-02T03:41:47;16.23;;;7.67;;
4365;SDS011;2196;47.422;9.656;2022-11-02T03:44:19;9.23;;;8.03;;
4365;SDS011;2196;47.422;9.656;2022-11-02T03:46:48;9.90;;;8.20;;
4365;SDS011;2196;47.422;9.656;2022-11-02T03:49:18;12.53;;;8.40;;
4365;SDS011;2196;47.422;9.656;2022-11-02T03:51:47;14.20;;;8.20;;
4365;SDS011;2196;47.422;9.656;2022-11-02T03:54:16;14.97;;;8.33;;
4365;SDS011;2196;47.422;9.656;2022-11-02T03:56:50;17.00;;;12.00;;
4365;SDS011;2196;47.422;9.656;2022-11-02T03:59:23;15.20;;;11.43;;
4365;SDS011;2196;47.422;9.656;2022-11-02T04:01:50;16.93;;;10.73;;
4365;SDS011;2196;47.422;9.656;2022-11-02T04:04:17;16.17;;;10.30;;
4365;SDS011;2196;47.422;9.656;2022-11-02T04:06:45;10.53;;;9.27;;
4365;SDS011;2196;47.422;9.656;2022-11-02T04:09:14;10.43;;;9.30;;
4365;SDS011;2196;47.422;9.656;2022-11-02T04:11:41;9.70;;;8.67;;
4365;SDS011;2196;47.422;9.656;2022-11-02T04:14:28;10.13;;;9.07;;
4365;SDS011;2196;47.422;9.656;2022-11-02T04:17:04;12.93;;;8.57;;
4365;SDS011;2196;47.422;9.656;2022-11-02T04:19:48;13.63;;;8.40;;
4365;SDS011;2196;47.422;9.656;2022-11-02T04:22:16;8.40;;;6.87;;
4365;SDS011;2196;47.422;9.656;2022-11-02T04:25:00;11.17;;;8.03;;
4365;SDS011;2196;47.422;9.656;2022-11-02T04:27:46;11.83;;;7.20;;
4365;SDS011;2196;47.422;9.656;2022-11-02T04:30:17;12.20;;;7.57;;
4365;SDS011;2196;47.422;9.656;2022-11-02T04:32:46;8.60;;;7.57;;
4365;SDS011;2196;47.422;9.656;2022-11-02T04:35:32;9.53;;;6.77;;
4365;SDS011;2196;47.422;9.656;2022-11-02T04:38:01;9.13;;;6.63;;
4365;SDS011;2196;47.422;9.656;2022-11-02T04:40:46;7.63;;;6.40;;
4365;SDS011;2196;47.422;9.656;2022-11-02T04:43:15;10.23;;;6.47;;
4365;SDS011;2196;47.422;9.656;2022-11-02T04:45:43;8.40;;;7.27;;
4365;SDS011;2196;47.422;9.656;2022-11-02T04:48:10;9.47;;;7.80;;
4365;SDS011;2196;47.422;9.656;2022-11-02T04:50:37;9.87;;;7.73;;
4365;SDS011;2196;47.422;9.656;2022-11-02T04:53:04;10.10;;;7.63;;
4365;SDS011;2196;47.422;9.656;2022-11-02T04:55:32;8.30;;;7.50;;
4365;SDS011;2196;47.422;9.656;2022-11-02T04:58:00;7.67;;;6.87;;
4365;SDS011;2196;47.422;9.656;2022-11-02T05:00:27;11.87;;;8.07;;
4365;SDS011;2196;47.422;9.656;2022-11-02T05:02:55;11.67;;;7.40;;
4365;SDS011;2196;47.422;9.656;2022-11-02T05:05:22;11.17;;;6.10;;
4365;SDS011;2196;47.422;9.656;2022-11-02T05:07:49;9.80;;;8.23;;
4365;SDS011;2196;47.422;9.656;2022-11-02T05:10:16;9.03;;;6.77;;
4365;SDS011;2196;47.422;9.656;2022-11-02T05:12:44;11.37;;;8.70;;
4365;SDS011;2196;47.422;9.656;2022-11-02T05:15:11;11.37;;;7.77;;
4365;SDS011;2196;47.422;9.656;2022-11-02T05:17:38;11.17;;;7.53;;
4365;SDS011;2196;47.422;9.656;2022-11-02T05:20:06;16.97;;;8.07;;
4365;SDS011;2196;47.422;9.656;2022-11-02T05:22:34;8.90;;;7.47;;
4365;SDS011;2196;47.422;9.656;2022-11-02T05:25:01;8.47;;;6.67;;
4365;SDS011;2196;47.422;9.656;2022-11-02T05:27:29;14.53;;;7.73;;
4365;SDS011;2196;47.422;9.656;2022-11-02T05:29:56;7.27;;;6.57;;
4365;SDS011;2196;47.422;9.656;2022-11-02T05:32:24;13.43;;;7.47;;
4365;SDS011;2196;47.422;9.656;2022-11-02T05:34:52;8.73;;;6.07;;
4365;SDS011;2196;47.422;9.656;2022-11-02T05:37:20;10.07;;;6.43;;
4365;SDS011;2196;47.422;9.656;2022-11-02T05:39:47;15.63;;;8.53;;
4365;SDS011;2196;47.422;9.656;2022-11-02T05:42:14;6.70;;;6.00;;
4365;SDS011;2196;47.422;9.656;2022-11-02T05:44:41;7.40;;;5.87;;
4365;SDS011;2196;47.422;9.656;2022-11-02T05:47:08;7.03;;;5.97;;
4365;SDS011;2196;47.422;9.656;2022-11-02T05:49:35;11.87;;;5.93;;
4365;SDS011;2196;47.422;9.656;2022-11-02T05:52:02;6.90;;;6.23;;
4365;SDS011;2196;47.422;9.656;2022-11-02T05:54:31;8.50;;;6.10;;
4365;SDS011;2196;47.422;9.656;2022-11-02T05:56:58;8.67;;;5.33;;
4365;SDS011;2196;47.422;9.656;2022-11-02T05:59:25;10.30;;;6.63;;
4365;SDS011;2196;47.422;9.656;2022-11-02T06:01:52;7.90;;;5.40;;
4365;SDS011;2196;47.422;9.656;2022-11-02T06:04:20;10.30;;;6.77;;
4365;SDS011;2196;47.422;9.656;2022-11-02T06:06:47;6.60;;;5.43;;
4365;SDS011;2196;47.422;9.656;2022-11-02T06:09:14;8.60;;;5.80;;
4365;SDS011;2196;47.422;9.656;2022-11-02T06:11:43;11.47;;;6.27;;
4365;SDS011;2196;47.422;9.656;2022-11-02T06:14:10;16.97;;;10.57;;
4365;SDS011;2196;47.422;9.656;2022-11-02T06:16:37;33.97;;;17.87;;
4365;SDS011;2196;47.422;9.656;2022-11-02T06:19:04;11.63;;;7.33;;
4365;SDS011;2196;47.422;9.656;2022-11-02T06:21:31;7.57;;;5.33;;
4365;SDS011;2196;47.422;9.656;2022-11-02T06:23:58;16.40;;;7.07;;
4365;SDS011;2196;47.422;9.656;2022-11-02T06:26:25;9.77;;;6.00;;
4365;SDS011;2196;47.422;9.656;2022-11-02T06:28:53;9.60;;;5.73;;
4365;SDS011;2196;47.422;9.656;2022-11-02T06:31:20;13.43;;;5.67;;
4365;SDS011;2196;47.422;9.656;2022-11-02T06:33:48;5.77;;;5.13;;
4365;SDS011;2196;47.422;9.656;2022-11-02T06:36:15;10.27;;;4.97;;
4365;SDS011;2196;47.422;9.656;2022-11-02T06:38:42;6.07;;;5.53;;
4365;SDS011;2196;47.422;9.656;2022-11-02T06:41:10;6.10;;;4.30;;
4365;SDS011;2196;47.422;9.656;2022-11-02T06:43:37;9.90;;;5.27;;
4365;SDS011;2196;47.422;9.656;2022-11-02T06:46:06;8.37;;;5.67;;
4365;SDS011;2196;47.422;9.656;2022-11-02T06:48:33;12.27;;;5.63;;
4365;SDS011;2196;47.422;9.656;2022-11-02T06:51:00;8.23;;;4.27;;
4365;SDS011;2196;47.422;9.656;2022-11-02T06:53:28;10.50;;;5.47;;
4365;SDS011;2196;47.422;9.656;2022-11-02T06:55:56;6.10;;;4.40;;
4365;SDS011;2196;47.422;9.656;2022-11-02T06:58:24;6.73;;;4.43;;
4365;SDS011;2196;47.422;9.656;2022-11-02T07:00:55;4.77;;;4.37;;
4365;SDS011;2196;47.422;9.656;2022-11-02T07:03:25;9.87;;;4.40;;
4365;SDS011;2196;47.422;9.656;2022-11-02T07:05:53;10.47;;;3.93;;
4365;SDS011;2196;47.422;9.656;2022-11-02T07:08:20;7.63;;;3.67;;
4365;SDS011;2196;47.422;9.656;2022-11-02T07:10:47;7.43;;;4.40;;
4365;SDS011;2196;47.422;9.656;2022-11-02T07:13:15;9.80;;;3.80;;
4365;SDS011;2196;47.422;9.656;2022-11-02T07:15:42;4.80;;;3.57;;
4365;SDS011;2196;47.422;9.656;2022-11-02T07:18:09;5.37;;;4.27;;
4365;SDS011;2196;47.422;9.656;2022-11-02T07:20:39;6.00;;;4.53;;
4365;SDS011;2196;47.422;9.656;2022-11-02T07:23:06;9.67;;;4.07;;
4365;SDS011;2196;47.422;9.656;2022-11-02T07:25:33;4.97;;;4.23;;
4365;SDS011;2196;47.422;9.656;2022-11-02T07:28:00;8.73;;;5.00;;
4365;SDS011;2196;47.422;9.656;2022-11-02T07:30:28;13.07;;;6.20;;
4365;SDS011;2196;47.422;9.656;2022-11-02T07:32:57;10.47;;;6.03;;
4365;SDS011;2196;47.422;9.656;2022-11-02T07:35:24;7.87;;;5.40;;
4365;SDS011;2196;47.422;9.656;2022-11-02T07:37:57;7.90;;;5.07;;
4365;SDS011;2196;47.422;9.656;2022-11-02T07:40:25;8.53;;;4.70;;
4365;SDS011;2196;47.422;9.656;2022-11-02T07:42:52;8.47;;;6.27;;
4365;SDS011;2196;47.422;9.656;2022-11-02T07:45:19;12.97;;;6.07;;
4365;SDS011;2196;47.422;9.656;2022-11-02T07:47:47;10.80;;;6.83;;
4365;SDS011;2196;47.422;9.656;2022-11-02T07:50:16;11.87;;;6.83;;
4365;SDS011;2196;47.422;9.656;2022-11-02T07:52:45;13.33;;;7.53;;
4365;SDS011;2196;47.422;9.656;2022-11-02T07:55:15;14.77;;;8.13;;
4365;SDS011;2196;47.422;9.656;2022-11-02T07:57:43;11.27;;;7.67;;
4365;SDS011;2196;47.422;9.656;2022-11-02T08:00:18;10.20;;;7.20;;
4365;SDS011;2196;47.422;9.656;2022-11-02T08:02:45;13.10;;;7.67;;
4365;SDS011;2196;47.422;9.656;2022-11-02T08:05:12;10.67;;;6.77;;
4365;SDS011;2196;47.422;9.656;2022-11-02T08:07:39;7.13;;;6.13;;
4365;SDS011;2196;47.422;9.656;2022-11-02T08:10:07;11.37;;;6.67;;
4365;SDS011;2196;47.422;9.656;2022-11-02T08:12:35;9.03;;;7.70;;
4365;SDS011;2196;47.422;9.656;2022-11-02T08:15:03;11.70;;;6.20;;
4365;SDS011;2196;47.422;9.656;2022-11-02T08:17:30;9.47;;;6.40;;
4365;SDS011;2196;47.422;9.656;2022-11-02T08:19:57;10.40;;;6.53;;
4365;SDS011;2196;47.422;9.656;2022-11-02T08:22:24;9.40;;;7.47;;
4365;SDS011;2196;47.422;9.656;2022-11-02T08:24:51;8.07;;;6.40;;
4365;SDS011;2196;47.422;9.656;2022-11-02T08:27:18;10.47;;;7.00;;
4365;SDS011;2196;47.422;9.656;2022-11-02T08:29:47;11.40;;;7.50;;
4365;SDS011;2196;47.422;9.656;2022-11-02T08:32:14;10.83;;;8.07;;
4365;SDS011;2196;47.422;9.656;2022-11-02T08:34:41;15.23;;;8.73;;
4365;SDS011;2196;47.422;9.656;2022-11-02T08:37:08;10.33;;;7.37;;
4365;SDS011;2196;47.422;9.656;2022-11-02T08:39:35;9.37;;;7.07;;
4365;SDS011;2196;47.422;9.656;2022-11-02T08:42:02;9.17;;;6.33;;
4365;SDS011;2196;47.422;9.656;2022-11-02T08:44:29;11.33;;;6.43;;
4365;SDS011;2196;47.422;9.656;2022-11-02T08:46:58;10.67;;;6.97;;
4365;SDS011;2196;47.422;9.656;2022-11-02T08:49:25;7.73;;;6.03;;
4365;SDS011;2196;47.422;9.656;2022-11-02T08:51:52;8.17;;;5.00;;
4365;SDS011;2196;47.422;9.656;2022-11-02T08:54:19;7.20;;;6.37;;
4365;SDS011;2196;47.422;9.656;2022-11-02T08:56:46;7.50;;;5.70;;
4365;SDS011;2196;47.422;9.656;2022-11-02T08:59:13;9.73;;;6.73;;
4365;SDS011;2196;47.422;9.656;2022-11-02T09:01:43;11.10;;;7.80;;
4365;SDS011;2196;47.422;9.656;2022-11-02T09:04:14;9.23;;;5.63;;
4365;SDS011;2196;47.422;9.656;2022-11-02T09:06:41;10.53;;;7.37;;
4365;SDS011;2196;47.422;9.656;2022-11-02T09:09:08;9.00;;;5.40;;
4365;SDS011;2196;47.422;9.656;2022-11-02T09:11:35;6.33;;;4.93;;
4365;SDS011;2196;47.422;9.656;2022-11-02T09:14:02;9.20;;;6.13;;
4365;SDS011;2196;47.422;9.656;2022-11-02T09:16:31;6.03;;;4.93;;
4365;SDS011;2196;47.422;9.656;2022-11-02T09:18:58;14.13;;;5.90;;
4365;SDS011;2196;47.422;9.656;2022-11-02T09:21:26;9.10;;;5.77;;
4365;SDS011;2196;47.422;9.656;2022-11-02T09:23:53;5.73;;;4.57;;
4365;SDS011;2196;47.422;9.656;2022-11-02T09:26:20;10.73;;;5.87;;
4365;SDS011;2196;47.422;9.656;2022-11-02T09:28:47;10.60;;;7.43;;
4365;SDS011;2196;47.422;9.656;2022-11-02T09:31:14;8.57;;;5.97;;
4365;SDS011;2196;47.422;9.656;2022-11-02T09:33:41;9.93;;;6.13;;
4365;SDS011;2196;47.422;9.656;2022-11-02T09:36:08;5.30;;;4.80;;
4365;SDS011;2196;47.422;9.656;2022-11-02T09:38:36;9.17;;;4.97;;
4365;SDS011;2196;47.422;9.656;2022-11-02T09:41:06;6.73;;;4.80;;
4365;SDS011;2196;47.422;9.656;2022-11-02T09:43:40;7.37;;;4.93;;
4365;SDS011;2196;47.422;9.656;2022-11-02T09:46:16;7.43;;;5.20;;
4365;SDS011;2196;47.422;9.656;2022-11-02T09:48:47;8.87;;;6.00;;
4365;SDS011;2196;47.422;9.656;2022-11-02T09:51:17;7.73;;;5.10;;
4365;SDS011;2196;47.422;9.656;2022-11-02T09:53:50;8.37;;;5.10;;
4365;SDS011;2196;47.422;9.656;2022-11-02T09:56:21;9.20;;;5.07;;
4365;SDS011;2196;47.422;9.656;2022-11-02T09:58:50;8.57;;;5.13;;
4365;SDS011;2196;47.422;9.656;2022-11-02T10:01:37;6.87;;;5.83;;
4365;SDS011;2196;47.422;9.656;2022-11-02T10:04:16;8.73;;;5.37;;
4365;SDS011;2196;47.422;9.656;2022-11-02T10:07:13;8.97;;;5.57;;
4365;SDS011;2196;47.422;9.656;2022-11-02T10:09:52;9.83;;;4.93;;
4365;SDS011;2196;47.422;9.656;2022-11-02T10:12:23;7.07;;;6.37;;
4365;SDS011;2196;47.422;9.656;2022-11-02T10:14:57;8.93;;;5.40;;
4365;SDS011;2196;47.422;9.656;2022-11-02T10:17:28;7.10;;;4.93;;
4365;SDS011;2196;47.422;9.656;2022-11-02T10:20:01;8.10;;;5.20;;
4365;SDS011;2196;47.422;9.656;2022-11-02T10:22:33;8.63;;;5.67;;
4365;SDS011;2196;47.422;9.656;2022-11-02T10:25:06;7.17;;;5.40;;
4365;SDS011;2196;47.422;9.656;2022-11-02T10:27:37;7.80;;;5.83;;
4365;SDS011;2196;47.422;9.656;2022-11-02T10:30:06;11.23;;;6.50;;
4365;SDS011;2196;47.422;9.656;2022-11-02T10:32:37;7.67;;;5.50;;
4365;SDS011;2196;47.422;9.656;2022-11-02T10:35:09;5.83;;;4.30;;
4365;SDS011;2196;47.422;9.656;2022-11-02T10:37:46;8.43;;;4.63;;
4365;SDS011;2196;47.422;9.656;2022-11-02T10:40:29;11.13;;;5.53;;
4365;SDS011;2196;47.422;9.656;2022-11-02T10:43:11;11.37;;;5.70;;
4365;SDS011;2196;47.422;9.656;2022-11-02T10:45:57;15.57;;;5.47;;
4365;SDS011;2196;47.422;9.656;2022-11-02T10:48:45;6.23;;;5.63;;
4365;SDS011;2196;47.422;9.656;2022-11-02T10:51:20;8.57;;;5.60;;
4365;SDS011;2196;47.422;9.656;2022-11-02T10:53:49;6.60;;;4.43;;
4365;SDS011;2196;47.422;9.656;2022-11-02T10:56:19;6.40;;;5.00;;
4365;SDS011;2196;47.422;9.656;2022-11-02T10:58:53;6.03;;;4.23;;
4365;SDS011;2196;47.422;9.656;2022-11-02T11:01:24;5.37;;;4.87;;
4365;SDS011;2196;47.422;9.656;2022-11-02T11:03:53;5.43;;;4.93;;
4365;SDS011;2196;47.422;9.656;2022-11-02T11:06:22;8.40;;;5.40;;
4365;SDS011;2196;47.422;9.656;2022-11-02T11:08:49;6.17;;;5.37;;
4365;SDS011;2196;47.422;9.656;2022-11-02T11:11:20;8.03;;;5.17;;
4365;SDS011;2196;47.422;9.656;2022-11-02T11:13:53;8.20;;;5.03;;
4365;SDS011;2196;47.422;9.656;2022-11-02T11:16:30;7.27;;;6.33;;
4365;SDS011;2196;47.422;9.656;2022-11-02T11:18:59;12.83;;;6.10;;
4365;SDS011;2196;47.422;9.656;2022-11-02T11:21:34;6.40;;;5.80;;
4365;SDS011;2196;47.422;9.656;2022-11-02T11:29:47;5.63;;;5.10;;
4365;SDS011;2196;47.422;9.656;2022-11-02T11:32:17;9.13;;;5.90;;
4365;SDS011;2196;47.422;9.656;2022-11-02T11:34:49;12.43;;;5.90;;
4365;SDS011;2196;47.422;9.656;2022-11-02T11:37:21;8.07;;;5.80;;
4365;SDS011;2196;47.422;9.656;2022-11-02T11:39:50;7.37;;;5.60;;
4365;SDS011;2196;47.422;9.656;2022-11-02T11:42:22;7.73;;;5.23;;
4365;SDS011;2196;47.422;9.656;2022-11-02T11:44:54;8.60;;;4.83;;
4365;SDS011;2196;47.422;9.656;2022-11-02T11:47:24;6.63;;;4.70;;
4365;SDS011;2196;47.422;9.656;2022-11-02T11:49:52;12.07;;;6.13;;
4365;SDS011;2196;47.422;9.656;2022-11-02T11:52:23;16.63;;;9.37;;
4365;SDS011;2196;47.422;9.656;2022-11-02T11:54:53;27.50;;;14.57;;
4365;SDS011;2196;47.422;9.656;2022-11-02T11:57:24;7.10;;;6.40;;
4365;SDS011;2196;47.422;9.656;2022-11-02T11:59:54;6.93;;;5.47;;
4365;SDS011;2196;47.422;9.656;2022-11-02T12:02:23;8.40;;;5.23;;
4365;SDS011;2196;47.422;9.656;2022-11-02T12:04:57;9.30;;;4.57;;
4365;SDS011;2196;47.422;9.656;2022-11-02T12:10:39;9.47;;;3.87;;
4365;SDS011;2196;47.422;9.656;2022-11-02T12:13:19;6.37;;;4.70;;
4365;SDS011;2196;47.422;9.656;2022-11-02T12:16:00;6.43;;;5.67;;
4365;SDS011;2196;47.422;9.656;2022-11-02T12:18:42;10.13;;;6.37;;
4365;SDS011;2196;47.422;9.656;2022-11-02T12:21:26;10.90;;;4.83;;
4365;SDS011;2196;47.422;9.656;2022-11-02T12:24:13;6.80;;;4.70;;
4365;SDS011;2196;47.422;9.656;2022-11-02T12:26:59;13.33;;;5.00;;
4365;SDS011;2196;47.422;9.656;2022-11-02T12:29:51;9.63;;;5.60;;
4365;SDS011;2196;47.422;9.656;2022-11-02T12:32:33;4.30;;;3.40;;
4365;SDS011;2196;47.422;9.656;2022-11-02T12:35:20;4.00;;;2.43;;
4365;SDS011;2196;47.422;9.656;2022-11-02T12:37:57;5.73;;;2.80;;
4365;SDS011;2196;47.422;9.656;2022-11-02T12:40:38;4.00;;;2.53;;
4365;SDS011;2196;47.422;9.656;2022-11-02T12:43:16;8.20;;;1.47;;
4365;SDS011;2196;47.422;9.656;2022-11-02T12:45:53;5.13;;;1.30;;
4365;SDS011;2196;47.422;9.656;2022-11-02T12:48:28;4.53;;;2.27;;
4365;SDS011;2196;47.422;9.656;2022-11-02T12:51:07;4.17;;;1.73;;
4365;SDS011;2196;47.422;9.656;2022-11-02T12:53:42;6.73;;;1.77;;
4365;SDS011;2196;47.422;9.656;2022-11-02T12:56:15;2.93;;;1.50;;
4365;SDS011;2196;47.422;9.656;2022-11-02T12:58:46;1.50;;;1.40;;
4365;SDS011;2196;47.422;9.656;2022-11-02T13:01:17;2.10;;;0.97;;
4365;SDS011;2196;47.422;9.656;2022-11-02T13:03:50;3.67;;;1.40;;
4365;SDS011;2196;47.422;9.656;2022-11-02T13:06:24;2.27;;;0.93;;
4365;SDS011;2196;47.422;9.656;2022-11-02T13:08:57;3.03;;;1.37;;
4365;SDS011;2196;47.422;9.656;2022-11-02T13:11:28;5.70;;;1.77;;
4365;SDS011;2196;47.422;9.656;2022-11-02T13:13:59;3.17;;;1.63;;
4365;SDS011;2196;47.422;9.656;2022-11-02T13:16:34;5.67;;;2.27;;
4365;SDS011;2196;47.422;9.656;2022-11-02T13:19:08;7.63;;;1.60;;
4365;SDS011;2196;47.422;9.656;2022-11-02T13:21:44;3.43;;;1.50;;
4365;SDS011;2196;47.422;9.656;2022-11-02T13:24:19;2.30;;;1.13;;
4365;SDS011;2196;47.422;9.656;2022-11-02T13:26:48;4.87;;;1.10;;
4365;SDS011;2196;47.422;9.656;2022-11-02T13:29:18;1.87;;;1.20;;
4365;SDS011;2196;47.422;9.656;2022-11-02T13:31:54;5.00;;;1.83;;
4365;SDS011;2196;47.422;9.656;2022-11-02T13:34:28;3.43;;;1.70;;
4365;SDS011;2196;47.422;9.656;2022-11-02T13:37:02;4.03;;;1.00;;
4365;SDS011;2196;47.422;9.656;2022-11-02T13:39:33;1.93;;;0.97;;
4365;SDS011;2196;47.422;9.656;2022-11-02T13:42:08;1.33;;;1.23;;
4365;SDS011;2196;47.422;9.656;2022-11-02T13:45:06;5.03;;;1.20;;
4365;SDS011;2196;47.422;9.656;2022-11-02T13:48:04;2.63;;;0.87;;
4365;SDS011;2196;47.422;9.656;2022-11-02T13:50:59;2.63;;;1.40;;
4365;SDS011;2196;47.422;9.656;2022-11-02T13:53:32;3.50;;;1.93;;
4365;SDS011;2196;47.422;9.656;2022-11-02T13:56:04;3.30;;;1.90;;
4365;SDS011;2196;47.422;9.656;2022-11-02T13:58:35;5.37;;;1.00;;
4365;SDS011;2196;47.422;9.656;2022-11-02T14:01:07;5.00;;;1.10;;
4365;SDS011;2196;47.422;9.656;2022-11-02T14:03:44;1.27;;;0.77;;
4365;SDS011;2196;47.422;9.656;2022-11-02T14:06:15;3.13;;;1.27;;
4365;SDS011;2196;47.422;9.656;2022-11-02T14:08:46;3.60;;;1.83;;
4365;SDS011;2196;47.422;9.656;2022-11-02T14:11:23;1.87;;;1.57;;
4365;SDS011;2196;47.422;9.656;2022-11-02T14:14:05;4.33;;;1.23;;
4365;SDS011;2196;47.422;9.656;2022-11-02T14:16:43;1.47;;;0.93;;
4365;SDS011;2196;47.422;9.656;2022-11-02T14:19:23;6.70;;;1.30;;
4365;SDS011;2196;47.422;9.656;2022-11-02T14:22:04;4.97;;;1.30;;
4365;SDS011;2196;47.422;9.656;2022-11-02T14:24:51;6.80;;;1.43;;
4365;SDS011;2196;47.422;9.656;2022-11-02T14:27:37;4.17;;;1.30;;
4365;SDS011;2196;47.422;9.656;2022-11-02T14:30:18;2.73;;;1.00;;
4365;SDS011;2196;47.422;9.656;2022-11-02T14:33:08;1.57;;;0.90;;
4365;SDS011;2196;47.422;9.656;2022-11-02T14:35:51;5.87;;;0.90;;
4365;SDS011;2196;47.422;9.656;2022-11-02T14:41:37;2.17;;;0.93;;
4365;SDS011;2196;47.422;9.656;2022-11-02T14:44:17;1.17;;;0.90;;
4365;SDS011;2196;47.422;9.656;2022-11-02T14:47:14;1.20;;;0.90;;
4365;SDS011;2196;47.422;9.656;2022-11-02T14:49:45;2.77;;;0.67;;
4365;SDS011;2196;47.422;9.656;2022-11-02T14:52:21;2.63;;;0.80;;
4365;SDS011;2196;47.422;9.656;2022-11-02T14:54:52;2.03;;;0.90;;
4365;SDS011;2196;47.422;9.656;2022-11-02T14:57:25;2.20;;;1.00;;
4365;SDS011;2196;47.422;9.656;2022-11-02T14:59:56;6.37;;;3.00;;
4365;SDS011;2196;47.422;9.656;2022-11-02T15:02:28;1.20;;;1.10;;
4365;SDS011;2196;47.422;9.656;2022-11-02T15:04:58;2.50;;;1.50;;
4365;SDS011;2196;47.422;9.656;2022-11-02T15:07:31;2.43;;;1.10;;
4365;SDS011;2196;47.422;9.656;2022-11-02T15:10:02;2.90;;;1.37;;
4365;SDS011;2196;47.422;9.656;2022-11-02T15:12:32;3.53;;;1.97;;
4365;SDS011;2196;47.422;9.656;2022-11-02T15:17:58;7.13;;;1.97;;
4365;SDS011;2196;47.422;9.656;2022-11-02T15:20:41;3.43;;;1.73;;
4365;SDS011;2196;47.422;9.656;2022-11-02T15:23:14;2.00;;;1.90;;
4365;SDS011;2196;47.422;9.656;2022-11-02T15:25:47;6.50;;;1.90;;
4365;SDS011;2196;47.422;9.656;2022-11-02T15:28:17;2.93;;;1.33;;
4365;SDS011;2196;47.422;9.656;2022-11-02T15:30:48;3.83;;;1.27;;
4365;SDS011;2196;47.422;9.656;2022-11-02T15:33:21;3.37;;;2.43;;
4365;SDS011;2196;47.422;9.656;2022-11-02T15:35:55;6.07;;;2.93;;
4365;SDS011;2196;47.422;9.656;2022-11-02T15:38:26;3.57;;;2.47;;
4365;SDS011;2196;47.422;9.656;2022-11-02T15:40:58;3.53;;;1.93;;
4365;SDS011;2196;47.422;9.656;2022-11-02T15:43:46;3.43;;;1.83;;
4365;SDS011;2196;47.422;9.656;2022-11-02T15:46:36;4.53;;;1.53;;
4365;SDS011;2196;47.422;9.656;2022-11-02T15:49:17;4.27;;;1.60;;
4365;SDS011;2196;47.422;9.656;2022-11-02T15:51:58;1.87;;;1.77;;
4365;SDS011;2196;47.422;9.656;2022-11-02T15:54:50;6.50;;;2.30;;